createdAt,value
2022-08-07T00:00:59.553Z,14.5
2022-08-07T00:03:59.078Z,14.437
2022-08-07T00:07:01.398Z,14.375
2022-08-07T00:13:00.981Z,14.375
2022-08-07T00:15:59.119Z,14.312
2022-08-07T00:18:58.760Z,14.312
2022-08-07T00:22:02.274Z,14.312
2022-08-07T00:24:59.285Z,14.25
2022-08-07T00:27:59.308Z,14.312
2022-08-07T00:30:59.364Z,14.187
2022-08-07T00:33:58.449Z,14.125
2022-08-07T00:36:59.229Z,14.062
2022-08-07T00:39:59.303Z,14.062
2022-08-07T00:42:59.224Z,14.062
2022-08-07T00:45:59.767Z,14.0
2022-08-07T00:48:58.134Z,14.062
2022-08-07T00:51:58.960Z,14.062
2022-08-07T00:54:58.871Z,13.875
2022-08-07T00:57:58.952Z,13.812
2022-08-07T01:00:59.291Z,13.812
2022-08-07T01:04:00.306Z,13.812
2022-08-07T01:06:58.793Z,13.687
2022-08-07T01:10:06.602Z,13.75
2022-08-07T01:12:59.351Z,13.687
2022-08-07T01:16:04.992Z,13.562
2022-08-07T01:18:58.498Z,13.5
2022-08-07T01:21:58.872Z,13.187
2022-08-07T01:24:59.438Z,13.062
2022-08-07T01:27:59.585Z,12.937
2022-08-07T01:30:59.330Z,13.0
2022-08-07T01:33:59.071Z,13.062
2022-08-07T01:36:58.802Z,13.062
2022-08-07T01:39:58.681Z,13.25
2022-08-07T01:42:59.257Z,13.125
2022-08-07T01:45:59.114Z,13.125
2022-08-07T01:48:59.890Z,13.187
2022-08-07T01:52:03.732Z,13.187
2022-08-07T01:54:59.114Z,13.25
2022-08-07T01:58:05.793Z,13.25
2022-08-07T02:01:10.011Z,13.25
2022-08-07T02:03:59.152Z,13.25
2022-08-07T02:06:59.101Z,13.0
2022-08-07T02:09:58.955Z,13.0
2022-08-07T02:12:59.511Z,12.875
2022-08-07T02:15:58.493Z,12.875
2022-08-07T02:18:58.629Z,13.0
2022-08-07T02:21:59.031Z,13.0
2022-08-07T02:24:58.704Z,13.0
2022-08-07T02:27:58.647Z,13.0
2022-08-07T02:30:59.475Z,13.0
2022-08-07T02:34:02.778Z,13.125
2022-08-07T02:36:59.484Z,13.125
2022-08-07T02:40:11.720Z,13.062
2022-08-07T02:42:58.449Z,13.0
2022-08-07T02:46:02.196Z,13.0
2022-08-07T02:48:58.704Z,13.0
2022-08-07T02:51:58.276Z,13.0
2022-08-07T02:54:59.117Z,13.0
2022-08-07T02:57:58.336Z,12.812
2022-08-07T03:00:59.232Z,12.875
2022-08-07T03:03:59.639Z,12.75
2022-08-07T03:06:58.789Z,12.75
2022-08-07T03:09:59.095Z,12.687
2022-08-07T03:12:59.041Z,12.687
2022-08-07T03:15:59.575Z,12.812
2022-08-07T03:18:58.995Z,12.875
2022-08-07T03:21:58.841Z,12.875
2022-08-07T03:24:58.519Z,12.875
2022-08-07T03:27:59.564Z,12.937
2022-08-07T03:30:59.956Z,12.812
2022-08-07T03:33:58.366Z,12.812
2022-08-07T03:36:58.656Z,12.687
2022-08-07T03:40:15.375Z,12.625
2022-08-07T03:42:59.480Z,12.75
2022-08-07T03:45:59.516Z,12.75
2022-08-07T03:49:03.037Z,12.75
2022-08-07T03:52:01.104Z,12.75
2022-08-07T03:55:06.070Z,12.75
2022-08-07T03:58:34.089Z,12.75
2022-08-07T04:01:00.462Z,12.75
2022-08-07T04:03:59.150Z,12.75
2022-08-07T04:06:58.446Z,12.75
2022-08-07T04:09:59.182Z,12.812
2022-08-07T04:12:59.116Z,12.812
2022-08-07T04:15:58.898Z,12.875
2022-08-07T04:19:03.931Z,12.937
2022-08-07T04:22:07.838Z,12.875
2022-08-07T04:25:01.679Z,12.875
2022-08-07T04:28:00.629Z,12.875
2022-08-07T04:30:59.796Z,13.062
2022-08-07T04:33:58.942Z,13.062
2022-08-07T04:36:58.903Z,13.062
2022-08-07T04:40:00.215Z,13.125
2022-08-07T04:43:01.351Z,13.187
2022-08-07T04:46:01.908Z,13.312
2022-08-07T04:48:58.295Z,13.375
2022-08-07T04:51:58.660Z,13.437
2022-08-07T04:54:58.685Z,13.562
2022-08-07T04:58:10.639Z,13.75
2022-08-07T05:00:58.724Z,13.687
2022-08-07T05:04:07.650Z,13.875
2022-08-07T05:06:59.125Z,13.812
2022-08-07T05:09:59.623Z,13.812
2022-08-07T05:14:44.595Z,13.687
2022-08-07T05:15:59.640Z,13.75
2022-08-07T05:18:59.224Z,13.687
2022-08-07T05:22:01.832Z,13.687
2022-08-07T05:24:59.514Z,13.812
2022-08-07T05:28:02.575Z,13.812
2022-08-07T05:30:59.126Z,14.312
2022-08-07T05:34:04.367Z,14.5
2022-08-07T05:36:58.885Z,14.5
2022-08-07T05:40:16.465Z,14.875
2022-08-07T05:42:58.973Z,15.062
2022-08-07T05:45:59.218Z,15.125
2022-08-07T05:48:59.771Z,15.125
2022-08-07T05:51:58.861Z,15.062
2022-08-07T05:55:01.836Z,15.25
2022-08-07T05:57:58.776Z,15.562
2022-08-07T06:00:58.945Z,15.375
2022-08-07T06:04:01.116Z,15.625
2022-08-07T06:07:03.941Z,16.25
2022-08-07T06:10:05.365Z,16.0
2022-08-07T06:12:58.576Z,16.0
2022-08-07T06:15:58.959Z,16.0
2022-08-07T06:18:59.251Z,16.312
2022-08-07T06:22:16.361Z,16.25
2022-08-07T06:25:01.443Z,16.062
2022-08-07T06:28:01.202Z,16.25
2022-08-07T06:30:59.349Z,16.25
2022-08-07T06:33:58.550Z,16.437
2022-08-07T06:36:59.187Z,16.25
2022-08-07T06:40:17.323Z,16.625
2022-08-07T06:42:59.232Z,17.187
2022-08-07T06:46:00.955Z,17.0
2022-08-07T06:48:59.339Z,17.125
2022-08-07T06:51:59.545Z,17.062
2022-08-07T06:55:32.641Z,17.437
2022-08-07T06:57:59.225Z,17.437
2022-08-07T07:00:59.207Z,17.437
2022-08-07T07:04:07.027Z,17.875
2022-08-07T07:07:01.365Z,18.062
2022-08-07T07:09:58.812Z,18.125
2022-08-07T07:12:59.120Z,17.812
2022-08-07T07:15:59.377Z,18.312
2022-08-07T07:18:59.055Z,18.062
2022-08-07T07:22:12.268Z,18.375
2022-08-07T07:25:14.220Z,18.187
2022-08-07T07:28:02.970Z,18.125
2022-08-07T07:30:59.169Z,18.0
2022-08-07T07:33:59.016Z,18.0
2022-08-07T07:37:14.389Z,18.437
2022-08-07T07:39:59.462Z,18.875
2022-08-07T07:42:58.406Z,18.875
2022-08-07T07:46:37.800Z,18.562
2022-08-07T07:49:00.116Z,18.875
2022-08-07T07:51:59.796Z,19.0
2022-08-07T07:54:59.191Z,19.125
2022-08-07T07:57:59.260Z,19.125
2022-08-07T08:00:59.681Z,19.812
2022-08-07T08:04:10.961Z,19.687
2022-08-07T08:07:02.845Z,19.937
2022-08-07T08:10:05.349Z,19.812
2022-08-07T08:12:59.932Z,19.812
2022-08-07T08:16:00.769Z,20.125
2022-08-07T08:19:00.474Z,19.75
2022-08-07T08:22:03.170Z,20.312
2022-08-07T08:25:11.474Z,20.0
2022-08-07T08:28:03.542Z,20.25
2022-08-07T08:30:58.747Z,20.125
2022-08-07T08:33:58.635Z,20.562
2022-08-07T08:36:59.057Z,20.875
2022-08-07T08:39:58.925Z,20.625
2022-08-07T08:42:59.117Z,20.312
2022-08-07T08:46:00.744Z,20.875
2022-08-07T08:48:58.556Z,21.437
2022-08-07T08:52:12.816Z,21.062
2022-08-07T08:54:58.475Z,20.812
2022-08-07T08:57:59.371Z,20.687
2022-08-07T09:00:58.861Z,20.687
2022-08-07T09:03:58.614Z,20.875
2022-08-07T09:06:59.232Z,21.125
2022-08-07T09:09:59.359Z,21.062
2022-08-07T09:12:59.260Z,21.062
2022-08-07T09:16:24.187Z,21.375
2022-08-07T09:18:59.065Z,20.812
2022-08-07T09:24:27.469Z,21.25
2022-08-07T09:25:06.116Z,21.75
2022-08-07T09:27:59.972Z,21.375
2022-08-07T09:30:59.544Z,22.375
2022-08-07T09:33:58.795Z,22.0
2022-08-07T09:36:59.113Z,21.625
2022-08-07T09:39:59.607Z,21.375
2022-08-07T09:42:58.783Z,21.25
2022-08-07T09:47:24.151Z,21.937
2022-08-07T09:50:18.212Z,22.0
2022-08-07T09:52:15.694Z,22.125
2022-08-07T09:54:58.520Z,22.562
2022-08-07T09:57:58.517Z,23.125
2022-08-07T10:00:59.458Z,23.125
2022-08-07T10:04:03.874Z,22.75
2022-08-07T10:06:59.080Z,23.062
2022-08-07T10:10:02.488Z,23.125
2022-08-07T10:12:58.710Z,22.75
2022-08-07T10:15:59.250Z,23.062
2022-08-07T10:18:58.823Z,23.062
2022-08-07T10:22:14.928Z,23.125
2022-08-07T10:24:59.522Z,23.125
2022-08-07T10:27:59.131Z,22.937
2022-08-07T10:30:59.273Z,22.812
2022-08-07T10:34:06.828Z,22.75
2022-08-07T10:36:59.084Z,23.062
2022-08-07T10:40:05.488Z,23.25
2022-08-07T10:42:59.124Z,22.875
2022-08-07T10:45:58.905Z,22.937
2022-08-07T10:48:59.227Z,22.937
2022-08-07T10:52:02.033Z,23.312
2022-08-07T10:55:01.987Z,23.812
2022-08-07T10:57:58.967Z,23.625
2022-08-07T11:00:59.214Z,24.0
2022-08-07T11:04:31.550Z,23.812
2022-08-07T11:06:58.488Z,24.187
2022-08-07T11:10:09.340Z,24.312
2022-08-07T11:13:01.569Z,24.812
2022-08-07T11:15:58.432Z,24.812
2022-08-07T11:18:59.246Z,24.312
2022-08-07T11:22:00.178Z,23.812
2022-08-07T11:24:58.436Z,23.812
2022-08-07T11:28:02.888Z,24.437
2022-08-07T11:30:59.463Z,25.125
2022-08-07T11:34:00.564Z,24.625
2022-08-07T11:37:00.453Z,24.5
2022-08-07T11:40:02.046Z,24.875
2022-08-07T11:42:59.183Z,25.375
2022-08-07T11:45:59.408Z,25.75
2022-08-07T11:49:27.774Z,24.687
2022-08-07T11:51:59.202Z,24.812
2022-08-07T11:54:58.964Z,24.25
2022-08-07T11:58:01.174Z,24.937
2022-08-07T12:01:02.575Z,25.5
2022-08-07T12:03:59.735Z,24.562
2022-08-07T12:07:00.726Z,24.437
2022-08-07T12:10:02.221Z,25.0
2022-08-07T12:12:58.772Z,25.5
2022-08-07T12:16:06.966Z,25.5
2022-08-07T12:18:59.504Z,25.25
2022-08-07T12:22:37.738Z,25.062
2022-08-07T12:25:02.236Z,25.375
2022-08-07T12:28:08.872Z,25.75
2022-08-07T12:30:58.978Z,24.812
2022-08-07T12:34:01.667Z,26.25
2022-08-07T12:36:59.364Z,26.75
2022-08-07T12:39:59.238Z,26.75
2022-08-07T12:42:59.447Z,25.5
2022-08-07T12:45:58.920Z,24.875
2022-08-07T12:48:58.549Z,25.687
2022-08-07T12:52:12.390Z,26.812
2022-08-07T12:55:03.797Z,26.687
2022-08-07T12:58:00.781Z,25.75
2022-08-07T13:01:00.166Z,25.875
2022-08-07T13:04:04.839Z,25.437
2022-08-07T13:07:01.757Z,25.687
2022-08-07T13:10:20.698Z,25.562
2022-08-07T13:12:59.051Z,25.625
2022-08-07T13:15:59.437Z,26.5
2022-08-07T13:18:58.691Z,26.187
2022-08-07T13:22:05.156Z,26.937
2022-08-07T13:24:59.153Z,26.25
2022-08-07T13:28:14.551Z,26.062
2022-08-07T13:31:02.076Z,26.562
2022-08-07T13:34:31.001Z,26.562
2022-08-07T13:36:59.470Z,26.625
2022-08-07T13:40:34.911Z,26.625
2022-08-07T13:42:58.532Z,26.312
2022-08-07T13:46:21.798Z,25.062
2022-08-07T13:48:59.703Z,25.5
2022-08-07T13:52:22.387Z,25.25
2022-08-07T13:54:59.446Z,25.375
2022-08-07T13:58:02.221Z,26.0
2022-08-07T14:00:59.201Z,24.5
2022-08-07T14:04:06.964Z,24.937
2022-08-07T14:06:58.909Z,24.937
2022-08-07T14:10:14.942Z,24.437
2022-08-07T14:13:00.647Z,24.437
2022-08-07T14:15:58.934Z,24.437
2022-08-07T14:18:58.989Z,24.5
2022-08-07T14:22:03.543Z,24.5
2022-08-07T14:24:58.706Z,24.5
2022-08-07T14:28:10.875Z,24.0
2022-08-07T14:30:59.007Z,24.5
2022-08-07T14:33:59.257Z,24.312
2022-08-07T14:36:58.787Z,24.0
2022-08-07T14:40:15.607Z,24.187
2022-08-07T14:43:55.644Z,24.562
2022-08-07T14:45:59.157Z,24.562
2022-08-07T14:48:59.297Z,24.562
2022-08-07T14:52:05.109Z,24.125
2022-08-07T14:54:58.850Z,24.25
2022-08-07T14:57:59.488Z,24.25
2022-08-07T15:00:59.571Z,24.0
2022-08-07T15:04:02.451Z,24.25
2022-08-07T15:06:58.381Z,24.25
2022-08-07T15:10:01.999Z,24.25
2022-08-07T15:12:59.313Z,24.437
2022-08-07T15:15:59.513Z,24.437
2022-08-07T15:19:00.731Z,24.437
2022-08-07T15:22:04.136Z,24.687
2022-08-07T15:28:32.995Z,24.375
2022-08-07T15:33:58.590Z,24.312
2022-08-07T15:37:03.683Z,24.125
2022-08-07T15:39:59.890Z,24.312
2022-08-07T15:42:59.102Z,24.187
2022-08-07T15:46:03.514Z,24.375
2022-08-07T15:55:02.468Z,24.062
2022-08-07T15:58:00.189Z,24.0
2022-08-07T16:00:59.209Z,24.062
2022-08-07T16:03:58.668Z,24.062
2022-08-07T16:06:58.499Z,23.687
2022-08-07T16:09:59.438Z,23.875
2022-08-07T16:13:05.361Z,24.187
2022-08-07T16:16:02.243Z,23.937
2022-08-07T16:18:58.967Z,24.062
2022-08-07T16:22:05.859Z,24.0
2022-08-07T16:24:58.729Z,24.062
2022-08-07T16:27:58.499Z,23.937
2022-08-07T16:30:59.244Z,24.0
2022-08-07T16:34:01.651Z,23.625
2022-08-07T16:37:02.508Z,23.875
2022-08-07T16:39:59.081Z,23.875
2022-08-07T16:42:59.101Z,23.875
2022-08-07T16:46:21.414Z,23.875
2022-08-07T16:50:29.197Z,23.687
2022-08-07T16:52:52.015Z,23.625
2022-08-07T16:54:59.295Z,23.625
2022-08-07T16:58:02.322Z,23.437
2022-08-07T17:00:59.369Z,23.437
2022-08-07T17:04:00.363Z,23.437
2022-08-07T17:07:04.049Z,23.437
2022-08-07T17:10:06.912Z,23.625
2022-08-07T17:13:01.014Z,23.562
2022-08-07T17:15:59.422Z,23.562
2022-08-07T17:18:58.583Z,23.5
2022-08-07T17:21:58.559Z,23.5
2022-08-07T17:24:58.618Z,23.5
2022-08-07T17:27:59.388Z,23.562
2022-08-07T17:30:59.290Z,23.437
2022-08-07T17:34:18.028Z,23.25
2022-08-07T17:37:09.521Z,23.187
2022-08-07T17:40:05.431Z,23.312
2022-08-07T17:43:00.473Z,23.187
2022-08-07T17:45:58.778Z,23.187
2022-08-07T17:48:59.147Z,23.0
2022-08-07T17:52:01.046Z,23.0
2022-08-07T17:54:58.957Z,23.0
2022-08-07T17:58:01.516Z,22.875
2022-08-07T18:01:29.069Z,22.875
2022-08-07T18:04:07.357Z,22.625
2022-08-07T18:07:19.643Z,22.5
2022-08-07T18:10:06.648Z,22.437
2022-08-07T18:12:59.495Z,22.25
2022-08-07T18:15:59.797Z,22.062
2022-08-07T18:21:03.993Z,22.125
2022-08-07T18:22:03.427Z,22.125
2022-08-07T18:24:58.655Z,22.125
2022-08-07T18:27:58.996Z,20.937
2022-08-07T18:30:59.554Z,21.0
2022-08-07T18:33:58.545Z,20.937
2022-08-07T18:36:58.674Z,20.312
2022-08-07T18:40:08.406Z,20.312
2022-08-07T18:42:58.990Z,20.5
2022-08-07T18:46:25.392Z,20.187
2022-08-07T18:50:29.873Z,20.187
2022-08-07T18:52:25.582Z,20.0
2022-08-07T18:54:59.413Z,19.875
2022-08-07T18:57:59.710Z,19.875
2022-08-07T19:01:00.694Z,19.875
2022-08-07T19:03:58.611Z,19.875
2022-08-07T19:06:58.375Z,19.125
2022-08-07T19:09:59.321Z,19.125
2022-08-07T19:13:09.918Z,18.812
2022-08-07T19:16:05.903Z,18.562
2022-08-07T19:18:59.064Z,18.5
2022-08-07T19:22:04.719Z,18.5
2022-08-07T19:25:05.515Z,18.5
2022-08-07T19:28:58.448Z,18.5
2022-08-07T19:31:39.586Z,18.875
2022-08-07T19:33:58.547Z,19.062
2022-08-07T19:37:10.202Z,19.375
2022-08-07T19:40:01.884Z,19.312
2022-08-07T19:42:59.475Z,19.25
2022-08-07T19:46:07.233Z,19.187
2022-08-07T19:48:59.530Z,19.062
2022-08-07T19:52:00.516Z,18.937
2022-08-07T19:54:59.956Z,18.75
2022-08-07T19:58:13.578Z,18.375
2022-08-07T20:00:59.396Z,18.312
2022-08-07T20:03:58.895Z,18.5
2022-08-07T20:06:59.493Z,18.875
2022-08-07T20:10:35.779Z,18.875
2022-08-07T20:12:59.294Z,18.375
2022-08-07T20:15:59.457Z,18.937
2022-08-07T20:18:59.097Z,19.375
2022-08-07T20:21:59.450Z,19.375
2022-08-07T20:24:59.197Z,19.375
2022-08-07T20:28:03.592Z,19.375
2022-08-07T20:30:59.953Z,19.0
2022-08-07T20:33:59.270Z,19.062
2022-08-07T20:36:58.867Z,18.937
2022-08-07T20:40:02.124Z,18.937
2022-08-07T20:42:59.371Z,18.937
2022-08-07T20:46:25.635Z,18.625
2022-08-07T20:49:59.300Z,18.687
2022-08-07T20:51:59.481Z,18.75
2022-08-07T20:54:58.617Z,18.625
2022-08-07T20:58:03.688Z,18.625
2022-08-07T21:00:59.560Z,18.562
2022-08-07T21:04:19.444Z,18.187
2022-08-07T21:06:58.578Z,18.187
2022-08-07T21:10:00.565Z,17.687
2022-08-07T21:12:59.271Z,17.687
2022-08-07T21:16:00.652Z,17.687
2022-08-07T21:18:58.609Z,16.625
2022-08-07T21:21:58.690Z,16.625
2022-08-07T21:24:58.620Z,16.812
2022-08-07T21:28:02.192Z,16.375
2022-08-07T21:30:59.122Z,16.437
2022-08-07T21:33:59.044Z,17.0
2022-08-07T21:36:58.678Z,17.062
2022-08-07T21:39:59.217Z,16.687
2022-08-07T21:42:59.567Z,16.125
2022-08-07T21:46:08.185Z,15.687
2022-08-07T21:48:59.021Z,15.312
2022-08-07T21:51:59.251Z,15.375
2022-08-07T21:54:59.232Z,15.187
2022-08-07T21:57:59.180Z,14.75
2022-08-07T22:00:58.703Z,15.25
2022-08-07T22:04:00.748Z,15.687
2022-08-07T22:06:59.201Z,15.687
2022-08-07T22:09:59.585Z,15.875
2022-08-07T22:12:59.470Z,15.625
2022-08-07T22:16:38.948Z,15.25
2022-08-07T22:18:59.137Z,15.437
2022-08-07T22:22:04.717Z,15.062
2022-08-07T22:24:59.429Z,15.062
2022-08-07T22:28:07.894Z,15.062
2022-08-07T22:30:59.356Z,15.437
2022-08-07T22:33:59.270Z,14.937
2022-08-07T22:36:58.712Z,14.687
2022-08-07T22:39:58.681Z,14.687
2022-08-07T22:42:59.349Z,14.562
2022-08-07T22:46:21.211Z,14.687
2022-08-07T22:49:02.184Z,14.812
2022-08-07T22:52:00.530Z,15.0
2022-08-07T22:54:59.028Z,14.937
2022-08-07T22:57:59.016Z,14.687
2022-08-07T23:00:58.871Z,14.437
2022-08-07T23:03:59.982Z,14.312
2022-08-07T23:06:59.400Z,14.375
2022-08-07T23:10:05.219Z,14.187
2022-08-07T23:12:59.007Z,14.187
2022-08-07T23:16:05.823Z,14.187
2022-08-07T23:18:58.858Z,14.125
2022-08-07T23:21:58.535Z,14.125
2022-08-07T23:24:58.533Z,13.875
2022-08-07T23:28:21.130Z,13.875
2022-08-07T23:31:11.575Z,13.687
2022-08-07T23:34:20.916Z,13.687
2022-08-07T23:37:20.176Z,13.75
2022-08-07T23:39:59.569Z,13.687
2022-08-07T23:42:59.229Z,13.687
2022-08-07T23:46:03.611Z,13.625
2022-08-07T23:48:58.852Z,13.625
2022-08-07T23:52:59.452Z,13.625
2022-08-07T23:54:58.847Z,13.5
2022-08-07T23:57:58.623Z,13.5
